createdAt,value
2022-12-26T00:01:00.902Z,-1.30
2022-12-26T00:03:36.156Z,-1.30
2022-12-26T00:06:04.190Z,-1.32
2022-12-26T00:08:32.063Z,-1.32
2022-12-26T00:10:59.937Z,-1.34
2022-12-26T00:13:38.140Z,-1.35
2022-12-26T00:16:10.123Z,-1.35
2022-12-26T00:18:38.987Z,-1.37
2022-12-26T00:21:07.804Z,-1.39
2022-12-26T00:23:36.261Z,-1.41
2022-12-26T00:26:05.478Z,-1.42
2022-12-26T00:28:33.757Z,-1.42
2022-12-26T00:31:09.005Z,-1.42
2022-12-26T00:33:37.571Z,-1.38
2022-12-26T00:36:07.704Z,-1.34
2022-12-26T00:38:36.471Z,-1.32
2022-12-26T00:41:04.789Z,-1.34
2022-12-26T00:43:33.112Z,-1.33
2022-12-26T00:46:01.456Z,-1.35
2022-12-26T00:48:29.536Z,-1.38
2022-12-26T00:50:57.449Z,-1.40
2022-12-26T00:53:26.099Z,-1.40
2022-12-26T00:55:54.179Z,-1.39
2022-12-26T00:58:22.750Z,-1.35
2022-12-26T01:00:51.281Z,-1.28
2022-12-26T01:03:19.698Z,-1.25
2022-12-26T01:05:49.165Z,-1.25
2022-12-26T01:08:19.582Z,-1.21
2022-12-26T01:10:50.116Z,-1.19
2022-12-26T01:13:17.849Z,-1.15
2022-12-26T01:15:52.967Z,-1.16
2022-12-26T01:18:21.050Z,-1.15
2022-12-26T01:20:49.503Z,-1.14
2022-12-26T01:23:17.992Z,-1.12
2022-12-26T01:26:16.695Z,-1.09
2022-12-26T01:28:33.643Z,-1.07
2022-12-26T01:31:02.458Z,-1.17
2022-12-26T01:33:31.126Z,-1.15
2022-12-26T01:35:59.483Z,-1.08
2022-12-26T01:38:27.313Z,-1.19
2022-12-26T01:41:15.439Z,-1.20
2022-12-26T01:43:54.979Z,-1.29
2022-12-26T01:46:26.095Z,-1.33
2022-12-26T01:48:55.012Z,-1.50
2022-12-26T01:51:26.360Z,-1.56
2022-12-26T01:54:40.352Z,-1.44
2022-12-26T01:56:45.870Z,-1.52
2022-12-26T01:59:24.967Z,-1.53
2022-12-26T02:01:53.881Z,-1.42
2022-12-26T02:04:46.744Z,-1.35
2022-12-26T02:07:14.720Z,-1.27
2022-12-26T02:09:42.949Z,-1.25
2022-12-26T02:12:36.139Z,-1.24
2022-12-26T02:15:08.800Z,-1.14
2022-12-26T02:17:37.388Z,-1.05
2022-12-26T02:20:18.299Z,-0.96
2022-12-26T02:23:01.232Z,-0.91
2022-12-26T02:25:32.083Z,-0.86
2022-12-26T02:28:15.321Z,-0.83
2022-12-26T02:30:57.091Z,-0.76
2022-12-26T02:33:43.454Z,-0.65
2022-12-26T02:36:17.403Z,-0.59
2022-12-26T02:38:45.174Z,-0.57
2022-12-26T02:41:13.015Z,-0.55
2022-12-26T02:43:56.122Z,-0.47
2022-12-26T02:46:54.101Z,-0.48
2022-12-26T02:49:28.417Z,-0.43
2022-12-26T02:52:19.438Z,-0.44
2022-12-26T02:55:23.243Z,-0.38
2022-12-26T02:58:23.215Z,-0.38
2022-12-26T03:01:14.415Z,-0.43
2022-12-26T03:04:04.146Z,-0.38
2022-12-26T03:06:51.995Z,-0.35
2022-12-26T03:09:38.593Z,-0.40
2022-12-26T03:12:44.156Z,-0.35
2022-12-26T03:15:13.775Z,-0.37
2022-12-26T03:17:43.698Z,-0.33
2022-12-26T03:20:14.450Z,-0.35
2022-12-26T03:22:42.238Z,-0.44
2022-12-26T03:25:34.857Z,-0.38
2022-12-26T03:28:03.317Z,-0.35
2022-12-26T03:30:50.048Z,-0.38
2022-12-26T03:33:51.041Z,-0.38
2022-12-26T03:36:18.857Z,-0.30
2022-12-26T03:38:56.119Z,-0.33
2022-12-26T03:41:45.992Z,-0.37
2022-12-26T03:44:38.396Z,-0.28
2022-12-26T03:47:32.502Z,-0.25
2022-12-26T03:50:22.238Z,-0.19
2022-12-26T03:53:19.030Z,-0.18
2022-12-26T03:56:16.087Z,-0.16
2022-12-26T03:59:11.187Z,-0.18
2022-12-26T04:02:17.987Z,-0.11
2022-12-26T04:05:05.145Z,-0.04
2022-12-26T04:07:56.128Z,0.01
2022-12-26T04:10:53.455Z,0.01
2022-12-26T04:13:43.070Z,0.05
2022-12-26T04:16:35.143Z,0.13
2022-12-26T04:19:25.636Z,0.16
2022-12-26T04:22:23.283Z,0.19
2022-12-26T04:25:16.966Z,0.25
2022-12-26T04:28:03.518Z,0.27
2022-12-26T04:30:53.205Z,0.30
2022-12-26T04:33:44.351Z,0.32
2022-12-26T04:36:42.932Z,0.32
2022-12-26T04:39:30.250Z,0.39
2022-12-26T04:42:18.180Z,0.44
2022-12-26T04:44:46.888Z,0.47
2022-12-26T04:47:14.795Z,0.51
2022-12-26T04:50:02.050Z,0.54
2022-12-26T04:52:50.210Z,0.56
2022-12-26T04:55:18.459Z,0.60
2022-12-26T04:57:46.335Z,0.62
2022-12-26T05:00:16.124Z,0.62
2022-12-26T05:03:02.683Z,0.67
2022-12-26T05:05:54.651Z,0.70
2022-12-26T05:08:52.789Z,0.70
2022-12-26T05:11:20.893Z,0.74
2022-12-26T05:13:48.953Z,0.71
2022-12-26T05:16:35.309Z,0.76
2022-12-26T05:19:21.546Z,0.79
2022-12-26T05:22:08.525Z,0.80
2022-12-26T05:24:58.037Z,0.82
2022-12-26T05:27:47.867Z,0.79
2022-12-26T05:30:15.754Z,0.81
2022-12-26T05:33:02.213Z,0.80
2022-12-26T05:35:29.951Z,0.77
2022-12-26T05:37:57.738Z,0.82
2022-12-26T05:40:25.508Z,0.81
2022-12-26T05:42:55.870Z,0.71
2022-12-26T05:45:23.895Z,0.76
2022-12-26T05:47:57.709Z,0.69
2022-12-26T05:50:25.637Z,0.73
2022-12-26T05:52:53.509Z,0.75
2022-12-26T05:55:21.370Z,0.79
2022-12-26T05:57:49.331Z,0.72
2022-12-26T06:00:17.391Z,0.75
2022-12-26T06:02:45.315Z,0.71
2022-12-26T06:05:13.339Z,0.68
2022-12-26T06:07:41.672Z,0.74
2022-12-26T06:10:09.752Z,0.76
2022-12-26T06:12:37.578Z,0.77
2022-12-26T06:15:05.874Z,0.77
2022-12-26T06:17:33.640Z,0.81
2022-12-26T06:20:01.497Z,0.84
2022-12-26T06:22:30.027Z,0.90
2022-12-26T06:24:57.916Z,0.92
2022-12-26T06:27:25.725Z,0.94
2022-12-26T06:29:53.932Z,0.99
2022-12-26T06:32:22.038Z,1.03
2022-12-26T06:34:49.939Z,1.09
2022-12-26T06:37:17.812Z,1.09
2022-12-26T06:39:46.367Z,1.09
2022-12-26T06:42:14.166Z,1.14
2022-12-26T06:44:43.063Z,1.15
2022-12-26T06:47:10.896Z,1.18
2022-12-26T06:49:38.794Z,1.12
2022-12-26T06:52:08.601Z,1.07
2022-12-26T06:54:36.422Z,1.07
2022-12-26T06:57:04.294Z,1.14
2022-12-26T06:59:32.340Z,1.17
2022-12-26T07:02:03.064Z,1.16
2022-12-26T07:04:31.095Z,1.25
2022-12-26T07:06:58.894Z,1.30
2022-12-26T07:09:33.137Z,1.36
2022-12-26T07:12:01.668Z,1.37
2022-12-26T07:14:29.609Z,1.36
2022-12-26T07:16:57.509Z,1.37
2022-12-26T07:19:25.574Z,1.40
2022-12-26T07:21:53.351Z,1.41
2022-12-26T07:24:21.958Z,1.38
2022-12-26T07:26:50.335Z,1.46
2022-12-26T07:29:21.896Z,1.34
2022-12-26T07:31:49.698Z,1.40
2022-12-26T07:34:17.915Z,1.49
2022-12-26T07:36:46.100Z,1.54
2022-12-26T07:39:14.612Z,1.54
2022-12-26T07:41:57.796Z,1.56
2022-12-26T07:44:26.557Z,1.64
2022-12-26T07:46:54.980Z,1.70
2022-12-26T07:49:23.100Z,1.77
2022-12-26T07:51:51.810Z,1.81
2022-12-26T07:54:19.838Z,1.76
2022-12-26T07:56:47.881Z,1.70
2022-12-26T07:59:17.492Z,1.77
2022-12-26T08:01:45.571Z,1.87
2022-12-26T08:04:13.861Z,1.88
2022-12-26T08:06:42.193Z,1.97
2022-12-26T08:09:13.113Z,1.95
2022-12-26T08:11:40.901Z,1.95
2022-12-26T08:14:11.288Z,2.07
2022-12-26T08:16:39.483Z,2.17
2022-12-26T08:19:07.317Z,2.16
2022-12-26T08:21:35.190Z,2.23
2022-12-26T08:24:03.633Z,2.28
2022-12-26T08:26:31.530Z,2.34
2022-12-26T08:28:59.418Z,2.45
2022-12-26T08:31:27.227Z,2.49
2022-12-26T08:33:57.016Z,2.44
2022-12-26T08:36:25.178Z,2.55
2022-12-26T08:38:53.449Z,2.61
2022-12-26T08:41:21.345Z,2.61
2022-12-26T08:44:25.738Z,2.60
2022-12-26T08:46:38.816Z,2.59
2022-12-26T08:49:06.682Z,2.57
2022-12-26T08:51:36.179Z,2.42
2022-12-26T08:54:04.626Z,2.54
2022-12-26T08:56:32.631Z,2.65
2022-12-26T08:59:00.735Z,2.79
2022-12-26T09:01:30.507Z,2.88
2022-12-26T09:03:59.769Z,3.00
2022-12-26T09:06:31.647Z,2.96
2022-12-26T09:09:00.725Z,2.99
2022-12-26T09:11:29.322Z,3.11
2022-12-26T09:13:59.956Z,3.00
2022-12-26T09:16:34.063Z,3.15
2022-12-26T09:19:06.240Z,3.23
2022-12-26T09:21:34.516Z,3.36
2022-12-26T09:24:05.126Z,3.40
2022-12-26T09:26:33.580Z,3.44
2022-12-26T09:29:02.065Z,3.48
2022-12-26T09:31:31.430Z,3.57
2022-12-26T09:34:01.159Z,3.64
2022-12-26T09:36:30.611Z,3.69
2022-12-26T09:38:59.048Z,3.74
2022-12-26T09:41:38.273Z,3.78
2022-12-26T09:44:12.379Z,3.80
2022-12-26T09:46:46.637Z,3.87
2022-12-26T09:49:20.425Z,3.90
2022-12-26T09:51:51.357Z,3.99
2022-12-26T09:54:27.894Z,4.03
2022-12-26T09:57:05.342Z,3.99
2022-12-26T09:59:43.377Z,4.12
2022-12-26T10:02:17.946Z,4.22
2022-12-26T10:04:45.895Z,4.31
2022-12-26T10:07:25.682Z,4.27
2022-12-26T10:10:12.040Z,4.26
2022-12-26T10:12:46.426Z,4.36
2022-12-26T10:15:34.665Z,4.42
2022-12-26T10:18:20.807Z,4.36
2022-12-26T10:21:09.642Z,4.46
2022-12-26T10:23:38.894Z,4.49
2022-12-26T10:26:13.280Z,4.57
2022-12-26T10:28:41.156Z,4.62
2022-12-26T10:31:21.630Z,4.50
2022-12-26T10:34:04.576Z,4.46
2022-12-26T10:36:45.996Z,4.44
2022-12-26T10:39:18.296Z,4.67
2022-12-26T10:41:48.282Z,4.86
2022-12-26T10:44:18.091Z,4.86
2022-12-26T10:47:07.208Z,4.91
2022-12-26T10:49:35.564Z,4.94
2022-12-26T10:52:04.324Z,4.85
2022-12-26T10:54:32.287Z,4.82
2022-12-26T10:57:04.046Z,4.84
2022-12-26T10:59:52.003Z,4.75
2022-12-26T11:02:24.738Z,4.80
2022-12-26T11:05:21.856Z,4.86
2022-12-26T11:07:54.403Z,4.88
2022-12-26T11:10:24.393Z,4.87
2022-12-26T11:12:55.735Z,4.98
2022-12-26T11:15:40.160Z,5.07
2022-12-26T11:18:08.021Z,5.12
2022-12-26T11:20:35.866Z,5.18
2022-12-26T11:23:18.753Z,5.30
2022-12-26T11:25:51.642Z,5.33
2022-12-26T11:28:23.849Z,5.44
2022-12-26T11:30:52.191Z,5.38
2022-12-26T11:33:20.411Z,5.48
2022-12-26T11:35:54.056Z,5.50
2022-12-26T11:38:44.439Z,5.33
2022-12-26T11:41:31.694Z,5.48
2022-12-26T11:43:59.496Z,5.64
2022-12-26T11:46:37.063Z,5.63
2022-12-26T11:49:05.769Z,5.66
2022-12-26T11:51:39.655Z,5.83
2022-12-26T11:54:26.699Z,5.93
2022-12-26T11:57:01.536Z,5.85
2022-12-26T11:59:29.418Z,5.74
2022-12-26T12:02:15.312Z,5.80
2022-12-26T12:04:44.921Z,5.71
2022-12-26T12:07:31.614Z,5.59
2022-12-26T12:10:32.958Z,5.60
2022-12-26T12:13:21.093Z,5.63
2022-12-26T12:16:11.512Z,5.62
2022-12-26T12:18:42.556Z,5.58
2022-12-26T12:21:10.448Z,5.65
2022-12-26T12:23:38.261Z,5.65
2022-12-26T12:26:10.350Z,5.64
2022-12-26T12:28:56.987Z,5.61
2022-12-26T12:31:32.025Z,5.62
2022-12-26T12:34:18.750Z,5.61
2022-12-26T12:36:55.562Z,5.66
2022-12-26T12:39:39.479Z,5.57
2022-12-26T12:42:07.357Z,5.68
2022-12-26T12:44:38.723Z,5.64
2022-12-26T12:47:06.578Z,5.65
2022-12-26T12:49:53.181Z,5.58
2022-12-26T12:52:21.286Z,5.62
2022-12-26T12:54:49.531Z,5.64
2022-12-26T12:57:20.548Z,5.72
2022-12-26T13:00:01.645Z,5.75
2022-12-26T13:02:40.210Z,5.77
2022-12-26T13:05:11.253Z,5.76
2022-12-26T13:07:46.956Z,5.77
2022-12-26T13:10:18.989Z,5.80
2022-12-26T13:12:48.301Z,5.82
2022-12-26T13:15:35.066Z,5.77
2022-12-26T13:18:09.821Z,5.66
2022-12-26T13:20:46.587Z,5.65
2022-12-26T13:23:51.845Z,5.62
2022-12-26T13:26:25.403Z,5.63
2022-12-26T13:29:12.409Z,5.59
2022-12-26T13:31:41.175Z,5.62
2022-12-26T13:34:11.119Z,5.66
2022-12-26T13:36:41.472Z,5.63
2022-12-26T13:39:12.553Z,5.74
2022-12-26T13:42:05.660Z,5.78
2022-12-26T13:44:35.280Z,5.79
2022-12-26T13:47:03.828Z,5.80
2022-12-26T13:49:38.859Z,5.76
2022-12-26T13:52:12.715Z,5.73
2022-12-26T13:54:47.575Z,5.67
2022-12-26T13:57:21.645Z,5.63
2022-12-26T13:59:55.472Z,5.60
2022-12-26T14:02:36.823Z,5.55
2022-12-26T14:05:23.342Z,5.36
2022-12-26T14:07:59.031Z,5.41
2022-12-26T14:10:26.877Z,5.38
2022-12-26T14:13:05.417Z,5.33
2022-12-26T14:15:34.378Z,5.37
2022-12-26T14:18:05.543Z,5.38
2022-12-26T14:20:40.104Z,5.36
2022-12-26T14:23:31.110Z,5.28
2022-12-26T14:26:17.658Z,5.27
2022-12-26T14:28:54.135Z,5.21
2022-12-26T14:31:26.383Z,5.13
2022-12-26T14:33:58.751Z,5.06
2022-12-26T14:36:36.122Z,5.05
2022-12-26T14:39:17.435Z,4.98
2022-12-26T14:42:23.076Z,4.99
2022-12-26T14:44:56.118Z,4.92
2022-12-26T14:47:36.160Z,4.90
2022-12-26T14:50:22.675Z,4.84
2022-12-26T14:52:50.699Z,4.82
2022-12-26T14:55:41.223Z,4.78
2022-12-26T14:58:21.073Z,4.71
2022-12-26T15:00:49.477Z,4.63
2022-12-26T15:03:26.511Z,4.56
2022-12-26T15:05:59.412Z,4.43
2022-12-26T15:08:45.881Z,4.37
2022-12-26T15:11:22.934Z,4.33
2022-12-26T15:14:10.106Z,4.22
2022-12-26T15:16:37.924Z,4.15
2022-12-26T15:19:17.941Z,4.09
2022-12-26T15:21:54.468Z,4.08
2022-12-26T15:24:52.497Z,4.01
2022-12-26T15:27:32.050Z,3.96
2022-12-26T15:30:16.309Z,3.90
2022-12-26T15:32:50.249Z,3.83
2022-12-26T15:35:27.248Z,3.81
2022-12-26T15:38:01.597Z,3.80
2022-12-26T15:40:37.945Z,3.75
2022-12-26T15:43:14.737Z,3.71
2022-12-26T15:45:45.587Z,3.67
2022-12-26T15:48:13.454Z,3.65
2022-12-26T15:51:02.820Z,3.61
2022-12-26T15:53:33.750Z,3.59
2022-12-26T15:56:20.837Z,3.55
2022-12-26T15:59:09.653Z,3.52
2022-12-26T16:01:39.480Z,3.49
2022-12-26T16:04:36.661Z,3.48
2022-12-26T16:07:17.822Z,3.46
2022-12-26T16:09:47.650Z,3.46
2022-12-26T16:12:27.906Z,3.43
2022-12-26T16:15:04.916Z,3.40
2022-12-26T16:17:34.181Z,3.40
2022-12-26T16:20:19.035Z,3.36
2022-12-26T16:22:47.416Z,3.33
2022-12-26T16:25:21.038Z,3.28
2022-12-26T16:27:51.757Z,3.25
2022-12-26T16:30:27.726Z,3.22
2022-12-26T16:32:56.129Z,3.19
2022-12-26T16:35:28.557Z,3.16
2022-12-26T16:37:58.485Z,3.14
2022-12-26T16:40:32.344Z,3.10
2022-12-26T16:43:02.883Z,3.08
2022-12-26T16:45:35.822Z,3.04
2022-12-26T16:48:06.270Z,2.99
2022-12-26T16:50:35.653Z,2.95
2022-12-26T16:53:16.402Z,2.91
2022-12-26T16:55:53.327Z,2.84
2022-12-26T16:58:25.138Z,2.82
2022-12-26T17:01:09.883Z,2.79
2022-12-26T17:03:48.459Z,2.75
2022-12-26T17:06:18.068Z,2.72
2022-12-26T17:08:47.518Z,2.70
2022-12-26T17:11:16.699Z,2.67
2022-12-26T17:13:51.858Z,2.62
2022-12-26T17:16:22.690Z,2.59
2022-12-26T17:18:52.911Z,2.53
2022-12-26T17:21:20.756Z,2.50
2022-12-26T17:24:06.299Z,2.45
2022-12-26T17:26:36.226Z,2.42
2022-12-26T17:29:04.926Z,2.38
2022-12-26T17:31:36.127Z,2.33
2022-12-26T17:34:08.107Z,2.27
2022-12-26T17:37:17.304Z,2.24
2022-12-26T17:39:25.782Z,2.19
2022-12-26T17:41:58.534Z,2.16
2022-12-26T17:44:42.920Z,2.11
2022-12-26T17:47:16.378Z,2.09
2022-12-26T17:49:44.556Z,2.06
2022-12-26T17:52:13.409Z,2.00
2022-12-26T17:54:41.402Z,1.96
2022-12-26T17:57:19.826Z,1.91
2022-12-26T17:59:47.790Z,1.88
2022-12-26T18:02:16.012Z,1.83
2022-12-26T18:04:44.197Z,1.79
2022-12-26T18:07:18.131Z,1.77
2022-12-26T18:09:48.662Z,1.74
2022-12-26T18:12:17.118Z,1.71
2022-12-26T18:14:45.152Z,1.66
2022-12-26T18:17:14.825Z,1.62
2022-12-26T18:19:42.701Z,1.59
2022-12-26T18:22:13.111Z,1.54
2022-12-26T18:24:41.127Z,1.51
2022-12-26T18:27:29.740Z,1.47
2022-12-26T18:29:58.142Z,1.45
2022-12-26T18:32:31.215Z,1.41
2022-12-26T18:34:59.516Z,1.37
2022-12-26T18:37:29.095Z,1.33
2022-12-26T18:39:57.072Z,1.29
2022-12-26T18:42:26.326Z,1.25
2022-12-26T18:44:54.684Z,1.22
2022-12-26T18:47:23.393Z,1.18
2022-12-26T18:49:51.323Z,1.18
2022-12-26T18:52:21.041Z,1.14
2022-12-26T18:54:48.985Z,1.11
2022-12-26T18:57:19.304Z,1.08
2022-12-26T18:59:48.385Z,1.04
2022-12-26T19:02:18.639Z,1.00
2022-12-26T19:04:48.719Z,0.95
2022-12-26T19:07:20.644Z,0.93
2022-12-26T19:09:50.334Z,0.88
2022-12-26T19:12:18.355Z,0.86
2022-12-26T19:14:46.795Z,0.83
2022-12-26T19:17:15.174Z,0.80
2022-12-26T19:19:43.115Z,0.74
2022-12-26T19:22:11.562Z,0.70
2022-12-26T19:24:41.148Z,0.67
2022-12-26T19:27:09.287Z,0.64
2022-12-26T19:29:37.108Z,0.61
2022-12-26T19:32:05.346Z,0.58
2022-12-26T19:34:33.336Z,0.54
2022-12-26T19:37:01.743Z,0.50
2022-12-26T19:39:29.655Z,0.48
2022-12-26T19:41:57.555Z,0.45
2022-12-26T19:44:25.533Z,0.42
2022-12-26T19:47:11.123Z,0.37
2022-12-26T19:49:41.687Z,0.36
2022-12-26T19:52:10.367Z,0.35
2022-12-26T19:54:38.831Z,0.30
2022-12-26T19:57:06.894Z,0.26
2022-12-26T19:59:35.088Z,0.24
2022-12-26T20:02:03.180Z,0.20
2022-12-26T20:04:31.389Z,0.20
2022-12-26T20:07:00.496Z,0.16
2022-12-26T20:09:28.381Z,0.15
2022-12-26T20:11:56.379Z,0.14
2022-12-26T20:14:26.174Z,0.11
2022-12-26T20:17:07.245Z,0.10
2022-12-26T20:19:37.345Z,0.10
2022-12-26T20:22:05.758Z,0.10
2022-12-26T20:24:33.805Z,0.09
2022-12-26T20:27:02.118Z,0.09
2022-12-26T20:29:30.369Z,0.08
2022-12-26T20:31:58.718Z,0.09
2022-12-26T20:34:26.631Z,0.10
2022-12-26T20:36:54.536Z,0.11
2022-12-26T20:39:23.385Z,0.11
2022-12-26T20:41:51.265Z,0.10
2022-12-26T20:44:19.241Z,0.09
2022-12-26T20:46:47.192Z,0.07
2022-12-26T20:49:15.812Z,0.05
2022-12-26T20:51:45.030Z,0.03
2022-12-26T20:54:15.007Z,-0.00
2022-12-26T20:56:43.553Z,-0.03
2022-12-26T20:59:11.868Z,-0.04
2022-12-26T21:01:40.840Z,-0.04
2022-12-26T21:04:10.367Z,-0.05
2022-12-26T21:06:38.532Z,-0.05
2022-12-26T21:09:07.195Z,-0.03
2022-12-26T21:11:36.446Z,-0.03
2022-12-26T21:14:08.399Z,-0.02
2022-12-26T21:16:37.996Z,-0.02
2022-12-26T21:19:12.271Z,-0.04
2022-12-26T21:21:44.417Z,-0.07
2022-12-26T21:24:26.388Z,-0.07
2022-12-26T21:26:54.764Z,-0.06
2022-12-26T21:29:24.846Z,-0.08
2022-12-26T21:31:53.323Z,-0.11
2022-12-26T21:34:22.384Z,-0.10
2022-12-26T21:37:08.910Z,-0.10
2022-12-26T21:39:38.443Z,-0.10
2022-12-26T21:42:07.259Z,-0.07
2022-12-26T21:44:35.971Z,-0.09
2022-12-26T21:47:04.419Z,-0.09
2022-12-26T21:49:32.376Z,-0.09
2022-12-26T21:52:00.247Z,-0.07
2022-12-26T21:54:49.333Z,-0.06
2022-12-26T21:57:18.024Z,-0.03
2022-12-26T21:59:58.942Z,0.02
2022-12-26T22:02:50.060Z,0.00
2022-12-26T22:05:19.524Z,0.00
2022-12-26T22:07:47.743Z,0.02
2022-12-26T22:10:34.390Z,0.01
2022-12-26T22:13:02.545Z,0.00
2022-12-26T22:15:49.076Z,0.01
2022-12-26T22:18:17.495Z,0.01
2022-12-26T22:20:46.231Z,0.03
2022-12-26T22:23:14.662Z,0.04
2022-12-26T22:25:42.692Z,0.09
2022-12-26T22:28:10.465Z,0.14
2022-12-26T22:30:38.243Z,0.22
2022-12-26T22:33:06.156Z,0.28
2022-12-26T22:35:34.274Z,0.31
2022-12-26T22:38:02.114Z,0.32
2022-12-26T22:40:29.962Z,0.36
2022-12-26T22:42:57.819Z,0.40
2022-12-26T22:45:25.721Z,0.45
2022-12-26T22:47:53.724Z,0.48
2022-12-26T22:50:21.619Z,0.50
2022-12-26T22:52:49.751Z,0.49
2022-12-26T22:55:18.639Z,0.55
2022-12-26T22:57:51.043Z,0.61
2022-12-26T23:00:20.522Z,0.64
2022-12-26T23:02:48.510Z,0.72
2022-12-26T23:05:16.803Z,0.71
2022-12-26T23:07:45.088Z,0.79
2022-12-26T23:10:23.344Z,0.79
2022-12-26T23:12:51.837Z,0.76
2022-12-26T23:15:24.699Z,0.82
2022-12-26T23:18:29.007Z,0.88
2022-12-26T23:21:16.543Z,0.94
2022-12-26T23:23:44.462Z,0.99
2022-12-26T23:26:12.601Z,0.98
2022-12-26T23:28:59.073Z,1.01
2022-12-26T23:31:27.009Z,0.98
2022-12-26T23:33:54.804Z,1.02
2022-12-26T23:36:22.651Z,0.98
2022-12-26T23:38:52.732Z,1.04
2022-12-26T23:41:20.651Z,0.99
2022-12-26T23:43:48.645Z,1.04
2022-12-26T23:46:16.518Z,1.08
2022-12-26T23:48:45.507Z,1.12
2022-12-26T23:51:13.314Z,1.12
2022-12-26T23:53:42.217Z,1.15
2022-12-26T23:56:10.770Z,1.17
2022-12-26T23:58:42.366Z,1.17
